createdAt,value
2023-02-13T00:01:53.359Z,48.17
2023-02-13T00:05:54.841Z,45.08
2023-02-13T00:09:56.296Z,43.53
2023-02-13T00:13:58.397Z,38.42
2023-02-13T00:18:00.052Z,37.13
2023-02-13T00:22:02.615Z,33.55
2023-02-13T00:26:09.589Z,35.15
2023-02-13T00:30:11.665Z,24.88
2023-02-13T00:34:13.188Z,29.30
2023-02-13T00:38:14.652Z,20.65
2023-02-13T00:42:16.115Z,30.30
2023-02-13T00:46:18.378Z,22.67
2023-02-13T00:50:19.852Z,21.73
2023-02-13T00:54:21.269Z,15.32
2023-02-13T00:58:23.490Z,13.93
2023-02-13T01:02:25.332Z,16.00
2023-02-13T01:06:26.841Z,12.35
2023-02-13T01:10:28.363Z,8.38
2023-02-13T01:14:29.865Z,10.18
2023-02-13T01:18:31.395Z,8.45
2023-02-13T01:22:32.973Z,10.07
2023-02-13T01:26:34.412Z,5.40
2023-02-13T01:30:36.624Z,7.50
2023-02-13T01:34:38.056Z,7.50
2023-02-13T01:38:40.452Z,6.80
2023-02-13T01:42:41.928Z,9.38
2023-02-13T01:46:44.231Z,11.02
2023-02-13T01:50:52.618Z,7.03
2023-02-13T01:54:54.287Z,7.78
2023-02-13T01:58:59.977Z,6.20
2023-02-13T02:03:08.806Z,7.72
2023-02-13T02:07:23.463Z,5.75
2023-02-13T02:12:03.067Z,7.93
2023-02-13T02:16:04.911Z,7.25
2023-02-13T02:20:15.558Z,4.07
2023-02-13T02:24:40.119Z,6.75
2023-02-13T02:29:32.256Z,11.43
2023-02-13T02:34:06.981Z,5.82
2023-02-13T02:38:43.047Z,7.00
2023-02-13T02:43:21.984Z,7.07
2023-02-13T02:48:24.164Z,9.10
